Time;durP1;ratioP1;P1;durP2;ratioP2;P2;SDS_P1;SDS_P2;PMS_P1;PMS_P2;Temp;Humidity;BMP_temperature;BMP_pressure;BME280_temperature;BME280_humidity;BME280_pressure;Samples;Min_cycle;Max_cycle;Signal;HPM_P1;HPM_P2
2023/06/17 00:00:29;;;;;;;26.10;14.45;;;14.20;99.90;;;;;;5093874;28;20558;-53
2023/06/17 00:02:55;;;;;;;19.58;13.63;;;14.40;99.90;;;;;;5091949;28;20036;-52
2023/06/17 00:05:21;;;;;;;16.00;13.00;;;14.40;99.90;;;;;;5093439;28;20036;-50
2023/06/17 00:07:47;;;;;;;17.05;13.57;;;14.30;99.90;;;;;;5072588;28;20812;-53
2023/06/17 00:10:13;;;;;;;17.73;13.25;;;14.30;99.90;;;;;;5094275;28;20051;-52
2023/06/17 00:12:39;;;;;;;16.75;13.02;;;14.30;99.90;;;;;;5093136;28;20515;-52
2023/06/17 00:15:06;;;;;;;19.42;12.98;;;14.30;99.90;;;;;;5093824;28;20727;-53
2023/06/17 00:17:32;;;;;;;20.20;13.15;;;14.60;99.90;;;;;;5091506;28;20052;-53
2023/06/17 00:20:00;;;;;;;21.90;12.18;;;14.60;99.90;;;;;;5093925;28;20058;-53
2023/06/17 00:22:29;;;;;;;20.25;12.95;;;16.70;99.90;;;;;;5092742;28;20119;-51
2023/06/17 00:24:56;;;;;;;22.77;13.57;;;14.40;99.90;;;;;;5073673;28;20047;-53
2023/06/17 00:27:22;;;;;;;20.90;13.90;;;13.30;99.90;;;;;;5090220;28;20047;-52
2023/06/17 00:29:48;;;;;;;19.80;14.05;;;14.50;99.90;;;;;;5091990;28;20044;-51
2023/06/17 00:32:13;;;;;;;21.38;14.95;;;14.60;99.90;;;;;;5093171;28;20408;-52
2023/06/17 00:34:39;;;;;;;22.55;15.15;;;14.70;99.90;;;;;;5091965;28;20040;-53
2023/06/17 00:37:05;;;;;;;23.42;14.85;;;14.80;99.90;;;;;;5090776;28;20050;-52
2023/06/17 00:39:31;;;;;;;21.73;15.63;;;14.90;99.90;;;;;;5092620;28;20047;-53
2023/06/17 00:41:57;;;;;;;24.52;14.60;;;14.80;99.90;;;;;;5091852;28;20341;-51
2023/06/17 00:44:23;;;;;;;23.52;16.63;;;14.80;99.90;;;;;;5091960;28;20263;-52
2023/06/17 00:46:50;;;;;;;20.85;15.35;;;14.90;99.90;;;;;;5091065;28;20044;-53
2023/06/17 00:49:17;;;;;;;23.75;15.75;;;14.90;99.90;;;;;;5090971;28;20127;-52
2023/06/17 00:51:44;;;;;;;18.58;14.13;;;15.00;99.90;;;;;;5090912;28;20031;-52
2023/06/17 00:54:12;;;;;;;21.98;15.27;;;14.90;99.90;;;;;;5090703;28;20787;-52
2023/06/17 00:56:39;;;;;;;22.65;14.77;;;14.90;99.90;;;;;;5091722;28;20075;-51
2023/06/17 00:59:05;;;;;;;22.58;15.77;;;15.10;99.90;;;;;;5091452;28;20043;-50
2023/06/17 01:01:35;;;;;;;22.73;16.77;;;15.10;99.90;;;;;;5091276;28;20040;-52
2023/06/17 01:04:02;;;;;;;24.92;18.13;;;15.00;99.90;;;;;;5091371;28;20089;-57
2023/06/17 01:07:03;;;;;;;25.13;15.35;;;15.20;99.90;;;;;;5090490;28;20052;-51
2023/06/17 01:09:33;;;;;;;20.52;14.70;;;15.10;99.90;;;;;;5091862;28;20051;-52
2023/06/17 01:12:00;;;;;;;22.17;18.45;;;15.20;99.90;;;;;;5091259;28;20149;-54
2023/06/17 01:14:27;;;;;;;20.23;16.52;;;15.10;99.90;;;;;;5092905;28;20036;-48
2023/06/17 01:16:54;;;;;;;25.45;16.80;;;15.20;99.90;;;;;;5073824;28;20973;-55
2023/06/17 01:19:23;;;;;;;25.48;17.67;;;14.90;99.90;;;;;;5090172;28;20110;-51
2023/06/17 01:21:51;;;;;;;25.45;18.25;;;15.20;99.90;;;;;;5091108;28;20051;-50
2023/06/17 01:24:28;;;;;;;25.13;19.13;;;15.30;99.90;;;;;;5091915;28;20047;-49
2023/06/17 01:27:00;;;;;;;30.00;21.08;;;15.20;99.90;;;;;;5072913;28;20034;-48
2023/06/17 01:29:26;;;;;;;;;;;15.10;99.90;;;;;;5091267;28;20044;-52
2023/06/17 01:31:56;;;;;;;26.35;19.05;;;15.30;99.90;;;;;;5091590;28;20398;-50
2023/06/17 01:34:45;;;;;;;25.40;18.42;;;15.20;99.90;;;;;;5090487;28;20052;-48
2023/06/17 01:37:11;;;;;;;25.73;20.23;;;15.20;99.90;;;;;;5089042;28;20059;-50
2023/06/17 01:39:42;;;;;;;27.42;20.52;;;15.20;99.90;;;;;;5090559;28;20036;-48
2023/06/17 01:42:14;;;;;;;26.42;18.92;;;15.40;99.90;;;;;;5092132;28;20048;-50
2023/06/17 01:44:41;;;;;;;26.20;19.45;;;15.20;99.90;;;;;;5093374;28;20275;-53
2023/06/17 01:47:09;;;;;;;26.80;19.70;;;15.20;99.90;;;;;;5072192;28;20066;-50
2023/06/17 01:49:37;;;;;;;23.83;19.88;;;15.20;99.90;;;;;;5090452;28;20624;-53
2023/06/17 01:52:03;;;;;;;26.55;21.10;;;15.40;99.90;;;;;;5090483;28;20044;-50
2023/06/17 01:54:29;;;;;;;27.20;19.20;;;15.40;99.90;;;;;;5089342;28;21081;-50
2023/06/17 01:56:55;;;;;;;27.10;19.55;;;15.20;99.90;;;;;;5091262;28;20043;-49
2023/06/17 01:59:20;;;;;;;26.83;19.33;;;15.20;99.90;;;;;;5090869;28;20135;-49
2023/06/17 02:01:46;;;;;;;24.63;19.05;;;15.30;99.90;;;;;;5088871;28;20558;-50
2023/06/17 02:04:12;;;;;;;26.20;18.05;;;15.20;99.90;;;;;;5091010;28;20047;-52
2023/06/17 02:06:38;;;;;;;24.83;18.65;;;15.00;99.90;;;;;;5090920;28;20048;-50
2023/06/17 02:09:04;;;;;;;26.58;18.75;;;15.40;99.90;;;;;;5091255;28;20483;-52
2023/06/17 02:11:30;;;;;;;25.38;19.42;;;15.30;99.90;;;;;;5091326;28;20321;-50
2023/06/17 02:13:56;;;;;;;30.05;20.33;;;15.10;99.90;;;;;;5090892;28;20488;-49
2023/06/17 02:16:21;;;;;;;30.55;21.92;;;15.30;99.90;;;;;;5091091;28;20312;-52
2023/06/17 02:18:48;;;;;;;23.88;19.73;;;15.30;99.90;;;;;;5090452;28;20051;-51
2023/06/17 02:21:14;;;;;;;22.20;18.05;;;15.30;99.90;;;;;;5090377;28;20516;-53
2023/06/17 02:23:40;;;;;;;23.60;16.13;;;15.30;99.90;;;;;;5072439;28;20069;-52
2023/06/17 02:26:05;;;;;;;24.25;17.73;;;15.30;99.90;;;;;;5089944;28;20133;-48
2023/06/17 02:28:31;;;;;;;22.05;17.17;;;15.30;99.90;;;;;;5077312;28;20036;-50
2023/06/17 02:30:57;;;;;;;21.02;16.85;;;15.10;99.90;;;;;;5093059;28;20140;-48
2023/06/17 02:33:23;;;;;;;23.20;17.30;;;15.10;99.90;;;;;;5094513;28;20132;-53
2023/06/17 02:35:48;;;;;;;20.73;16.70;;;15.20;99.90;;;;;;5093752;28;20569;-48
2023/06/17 02:38:15;;;;;;;27.33;18.70;;;15.30;99.90;;;;;;5094262;28;20035;-53
2023/06/17 02:40:40;;;;;;;25.35;17.00;;;15.10;99.90;;;;;;5094322;28;20059;-50
2023/06/17 02:43:07;;;;;;;26.63;16.73;;;15.20;99.90;;;;;;5092983;28;20505;-49
2023/06/17 02:45:32;;;;;;;22.38;17.02;;;15.20;99.90;;;;;;5095042;28;20476;-52
2023/06/17 02:47:58;;;;;;;26.15;16.77;;;15.10;99.90;;;;;;5094413;28;20039;-53
2023/06/17 02:50:26;;;;;;;32.17;18.23;;;15.20;99.90;;;;;;5093936;28;20047;-52
2023/06/17 02:52:55;;;;;;;31.63;18.73;;;15.00;99.90;;;;;;5095508;28;20519;-53
2023/06/17 02:55:27;;;;;;;26.75;19.60;;;15.10;99.90;;;;;;5094299;28;20092;-52
2023/06/17 02:57:53;;;;;;;23.85;17.67;;;15.00;99.90;;;;;;5092898;28;20028;-50
2023/06/17 03:00:20;;;;;;;30.10;19.80;;;15.00;99.90;;;;;;5076284;28;20035;-51
2023/06/17 03:02:47;;;;;;;27.65;19.13;;;15.00;99.90;;;;;;5093773;28;20067;-52
2023/06/17 03:05:14;;;;;;;23.08;20.13;;;15.00;99.90;;;;;;5094252;28;20255;-52
2023/06/17 03:07:40;;;;;;;24.67;19.30;;;15.10;99.90;;;;;;5093504;28;20040;-54
2023/06/17 03:10:07;;;;;;;25.85;20.40;;;15.00;99.90;;;;;;5092880;28;20058;-53
2023/06/17 03:12:33;;;;;;;29.00;20.63;;;14.90;99.90;;;;;;5094458;28;20043;-53
2023/06/17 03:14:58;;;;;;;28.98;21.90;;;15.00;99.90;;;;;;5095764;28;20047;-52
2023/06/17 03:17:25;;;;;;;24.08;18.35;;;15.10;99.90;;;;;;5092625;28;20043;-54
2023/06/17 03:19:51;;;;;;;30.90;22.40;;;15.00;99.90;;;;;;5092428;28;20047;-54
2023/06/17 03:22:17;;;;;;;23.77;19.83;;;14.90;99.90;;;;;;5093805;28;20393;-54
2023/06/17 03:24:42;;;;;;;24.90;18.48;;;15.10;99.90;;;;;;5094158;28;20035;-53
2023/06/17 03:27:08;;;;;;;27.20;20.42;;;15.20;99.90;;;;;;5075002;28;20047;-51
2023/06/17 03:29:37;;;;;;;29.65;20.17;;;14.80;99.90;;;;;;5094911;28;20123;-53
2023/06/17 03:32:03;;;;;;;25.40;20.50;;;15.00;99.90;;;;;;5092648;28;20539;-51
2023/06/17 03:34:29;;;;;;;30.33;23.08;;;15.00;99.90;;;;;;5093344;28;20052;-50
2023/06/17 03:36:56;;;;;;;33.83;21.95;;;14.80;99.90;;;;;;5093187;28;20062;-54
2023/06/17 03:39:22;;;;;;;30.33;21.17;;;15.00;99.90;;;;;;5092614;28;20051;-52
2023/06/17 03:41:48;;;;;;;30.85;21.50;;;14.90;99.90;;;;;;5092151;28;20039;-53
2023/06/17 03:44:14;;;;;;;26.77;19.48;;;15.10;99.90;;;;;;5093861;28;20043;-53
2023/06/17 03:46:40;;;;;;;33.97;19.70;;;14.90;99.90;;;;;;5093442;28;20475;-51
2023/06/17 03:49:06;;;;;;;25.92;20.17;;;14.90;99.90;;;;;;5093472;28;20047;-52
2023/06/17 03:51:32;;;;;;;28.42;20.13;;;15.10;99.90;;;;;;5093580;28;20545;-54
2023/06/17 03:53:58;;;;;;;25.55;20.85;;;14.80;99.90;;;;;;5092581;28;20071;-51
2023/06/17 03:56:23;;;;;;;23.33;19.92;;;14.90;99.90;;;;;;5091825;28;20071;-51
2023/06/17 03:58:49;;;;;;;24.08;18.65;;;15.10;99.90;;;;;;5092401;28;20488;-52
2023/06/17 04:01:15;;;;;;;23.50;17.92;;;15.10;99.90;;;;;;5093133;28;20801;-53
2023/06/17 04:03:41;;;;;;;24.80;18.20;;;15.00;99.90;;;;;;5073549;28;20108;-52
2023/06/17 04:06:08;;;;;;;27.15;18.65;;;15.00;99.90;;;;;;5091697;28;20051;-52
2023/06/17 04:08:35;;;;;;;24.25;17.48;;;15.10;99.90;;;;;;5090358;28;20416;-53
2023/06/17 04:11:02;;;;;;;22.02;16.25;;;15.00;99.90;;;;;;5072966;28;20544;-52
2023/06/17 04:13:28;;;;;;;29.48;19.35;;;14.90;99.90;;;;;;5092254;28;20160;-51
2023/06/17 04:15:54;;;;;;;23.35;17.83;;;15.10;99.90;;;;;;5091901;28;20162;-52
2023/06/17 04:18:20;;;;;;;26.40;19.02;;;15.10;99.90;;;;;;5091669;28;20050;-53
2023/06/17 04:20:46;;;;;;;27.58;18.73;;;14.80;99.90;;;;;;5091702;28;20104;-52
2023/06/17 04:23:11;;;;;;;21.63;18.23;;;15.00;99.90;;;;;;5091072;28;20069;-52
2023/06/17 04:25:37;;;;;;;22.85;16.88;;;15.20;99.90;;;;;;5092480;28;20054;-52
2023/06/17 04:28:07;;;;;;;19.13;15.18;;;15.10;99.90;;;;;;5073360;28;20648;-54
2023/06/17 04:30:33;;;;;;;24.77;17.02;;;14.80;99.90;;;;;;5092101;28;20531;-53
2023/06/17 04:33:00;;;;;;;22.35;16.35;;;14.90;99.90;;;;;;5093716;28;20154;-53
2023/06/17 04:35:26;;;;;;;23.17;16.40;;;15.20;99.90;;;;;;5091716;28;20694;-55
2023/06/17 04:37:55;;;;;;;20.60;15.95;;;15.20;99.90;;;;;;5091009;28;20039;-50
2023/06/17 04:40:22;;;;;;;23.83;17.13;;;15.00;99.90;;;;;;5091939;28;20043;-53
2023/06/17 04:42:49;;;;;;;22.10;16.30;;;15.20;99.90;;;;;;5092075;28;20108;-53
2023/06/17 04:45:17;;;;;;;22.55;17.52;;;15.10;99.90;;;;;;5093289;28;20051;-53
2023/06/17 04:47:46;;;;;;;22.75;16.23;;;14.90;99.90;;;;;;5093668;28;20043;-53
2023/06/17 04:50:15;;;;;;;19.40;14.77;;;15.10;99.90;;;;;;5092579;28;20089;-52
2023/06/17 04:52:47;;;;;;;22.13;16.58;;;15.30;99.90;;;;;;5092703;28;20442;-51
2023/06/17 04:55:13;;;;;;;24.10;18.25;;;14.90;99.90;;;;;;5092052;28;20043;-54
2023/06/17 04:57:41;;;;;;;24.00;16.90;;;15.10;99.90;;;;;;5091955;28;20040;-53
2023/06/17 05:00:08;;;;;;;20.00;16.15;;;15.20;99.90;;;;;;5091479;28;20139;-54
2023/06/17 05:02:34;;;;;;;18.60;15.55;;;15.10;99.90;;;;;;5090172;28;20062;-50
2023/06/17 05:05:00;;;;;;;21.25;15.23;;;15.10;99.90;;;;;;5090426;28;20449;-54
2023/06/17 05:07:26;;;;;;;23.67;16.60;;;15.10;99.90;;;;;;5090254;28;20047;-50
2023/06/17 05:09:52;;;;;;;20.40;15.70;;;15.00;99.90;;;;;;5091992;28;20059;-49
2023/06/17 05:12:18;;;;;;;25.60;18.58;;;15.10;99.90;;;;;;5090547;28;20074;-50
2023/06/17 05:14:43;;;;;;;23.40;15.93;;;15.20;99.90;;;;;;5091993;28;20105;-51
2023/06/17 05:17:09;;;;;;;22.63;15.68;;;15.30;99.90;;;;;;5092446;28;20435;-49
2023/06/17 05:19:35;;;;;;;20.90;15.82;;;15.40;99.90;;;;;;5089312;28;20048;-50
2023/06/17 05:22:00;;;;;;;23.13;16.73;;;15.20;99.90;;;;;;5073817;28;20507;-48
2023/06/17 05:24:26;;;;;;;20.50;16.88;;;15.20;99.90;;;;;;5091747;28;20043;-51
2023/06/17 05:26:52;;;;;;;24.75;17.23;;;15.30;99.90;;;;;;5091688;28;20244;-49
2023/06/17 05:29:18;;;;;;;21.98;16.83;;;15.30;99.90;;;;;;5091444;28;20542;-53
2023/06/17 05:31:44;;;;;;;21.40;18.10;;;15.30;99.90;;;;;;5092713;28;20055;-52
2023/06/17 05:34:10;;;;;;;24.08;18.55;;;15.40;99.90;;;;;;5090784;28;20528;-50
2023/06/17 05:36:35;;;;;;;20.35;17.33;;;15.10;99.90;;;;;;5092425;28;20385;-46
2023/06/17 05:39:01;;;;;;;23.42;19.60;;;15.20;99.90;;;;;;5091299;28;20043;-50
2023/06/17 05:41:27;;;;;;;27.50;21.25;;;15.10;99.90;;;;;;5090493;28;20075;-49
2023/06/17 05:43:53;;;;;;;27.67;20.95;;;15.30;99.90;;;;;;5090452;28;20028;-53
2023/06/17 05:46:18;;;;;;;23.80;19.95;;;15.20;99.90;;;;;;5092416;28;20055;-52
2023/06/17 05:48:44;;;;;;;27.63;21.35;;;15.40;99.90;;;;;;5090817;28;20098;-51
2023/06/17 05:51:10;;;;;;;25.38;21.73;;;15.50;99.90;;;;;;5088895;28;20050;-50
2023/06/17 05:53:35;;;;;;;24.23;20.70;;;15.50;99.90;;;;;;5071792;28;20488;-54
2023/06/17 05:56:01;;;;;;;22.38;19.52;;;15.30;99.90;;;;;;5073512;28;20036;-52
2023/06/17 05:58:27;;;;;;;26.15;22.50;;;15.50;99.90;;;;;;5090017;28;20035;-53
2023/06/17 06:00:52;;;;;;;25.00;21.60;;;15.50;99.90;;;;;;5091637;28;20127;-51
2023/06/17 06:03:18;;;;;;;27.02;20.52;;;15.50;99.90;;;;;;5092916;28;20035;-52
2023/06/17 06:05:44;;;;;;;22.77;18.45;;;15.60;99.90;;;;;;5095268;28;20246;-50
2023/06/17 06:08:10;;;;;;;19.60;16.90;;;15.60;99.90;;;;;;5095429;28;20055;-52
2023/06/17 06:10:35;;;;;;;28.85;18.38;;;15.50;99.90;;;;;;5094786;28;20036;-52
2023/06/17 06:13:01;;;;;;;21.75;16.75;;;15.60;99.90;;;;;;5095012;28;20961;-52
2023/06/17 06:15:27;;;;;;;22.60;17.67;;;15.50;99.90;;;;;;5094994;28;20419;-53
2023/06/17 06:17:52;;;;;;;24.60;16.92;;;15.60;99.90;;;;;;5095148;28;20036;-54
2023/06/17 06:20:18;;;;;;;26.40;17.35;;;15.40;99.90;;;;;;5093862;28;20066;-54
2023/06/17 06:22:44;;;;;;;23.10;16.25;;;15.60;99.90;;;;;;5093811;28;20198;-55
2023/06/17 06:25:10;;;;;;;23.48;17.65;;;15.80;99.90;;;;;;5093932;28;20521;-56
2023/06/17 06:27:36;;;;;;;23.70;17.42;;;15.70;99.90;;;;;;5092773;28;20043;-54
2023/06/17 06:30:02;;;;;;;22.88;16.00;;;15.80;99.90;;;;;;5093506;28;20672;-55
2023/06/17 06:32:27;;;;;;;20.17;16.33;;;15.70;99.90;;;;;;5093990;28;20051;-53
2023/06/17 06:34:53;;;;;;;20.38;15.52;;;15.70;99.90;;;;;;5093429;28;20078;-54
2023/06/17 06:37:19;;;;;;;18.40;14.75;;;15.70;99.90;;;;;;5094638;28;20032;-53
2023/06/17 06:39:44;;;;;;;22.60;15.20;;;15.70;99.90;;;;;;5095272;28;20062;-53
2023/06/17 06:42:11;;;;;;;17.73;13.90;;;15.90;99.90;;;;;;5075609;28;20075;-54
2023/06/17 06:44:37;;;;;;;27.45;17.50;;;15.80;99.90;;;;;;5094902;28;20048;-55
2023/06/17 06:47:03;;;;;;;23.95;15.63;;;16.10;99.90;;;;;;5096246;28;20400;-54
2023/06/17 06:49:29;;;;;;;25.52;15.43;;;15.80;99.90;;;;;;5094940;28;20048;-56
2023/06/17 06:51:55;;;;;;;23.75;16.65;;;16.20;99.90;;;;;;5094593;28;20040;-57
2023/06/17 06:54:20;;;;;;;21.85;14.43;;;16.10;99.90;;;;;;5071525;28;20809;-56
2023/06/17 06:56:46;;;;;;;18.45;15.52;;;16.00;99.90;;;;;;5093082;28;20452;-57
2023/06/17 06:59:12;;;;;;;18.02;13.88;;;16.10;99.90;;;;;;5077261;28;20043;-56
2023/06/17 07:01:38;;;;;;;17.88;14.50;;;16.20;99.90;;;;;;5093211;28;20522;-57
2023/06/17 07:04:04;;;;;;;22.80;15.10;;;16.30;99.90;;;;;;5092912;28;20046;-57
2023/06/17 07:06:30;;;;;;;20.75;15.50;;;16.30;99.90;;;;;;5094004;28;20056;-57
2023/06/17 07:08:55;;;;;;;23.17;16.05;;;16.40;99.90;;;;;;5094829;28;20054;-57
2023/06/17 07:11:21;;;;;;;20.08;13.88;;;16.40;99.90;;;;;;5093410;28;20127;-57
2023/06/17 07:13:47;;;;;;;20.25;13.68;;;16.70;99.90;;;;;;5092146;28;20256;-57
2023/06/17 07:16:13;;;;;;;18.08;13.02;;;16.70;99.90;;;;;;5093751;28;20461;-59
2023/06/17 07:18:38;;;;;;;20.40;13.60;;;16.60;99.90;;;;;;5093636;28;20035;-59
2023/06/17 07:21:04;;;;;;;17.33;13.02;;;16.90;99.90;;;;;;5089981;28;20047;-59
2023/06/17 07:23:30;;;;;;;18.80;14.50;;;17.00;99.90;;;;;;5088826;28;20036;-57
2023/06/17 07:25:55;;;;;;;17.00;13.57;;;17.00;99.90;;;;;;5091500;28;20043;-59
2023/06/17 07:28:22;;;;;;;20.42;14.65;;;17.00;99.90;;;;;;5090734;28;20416;-58
2023/06/17 07:30:48;;;;;;;19.73;14.90;;;17.20;99.90;;;;;;5089554;28;20064;-58
2023/06/17 07:33:14;;;;;;;20.50;15.27;;;16.90;99.90;;;;;;5092789;28;20044;-58
2023/06/17 07:35:40;;;;;;;20.75;13.60;;;17.30;99.90;;;;;;5090596;28;20050;-59
2023/06/17 07:38:06;;;;;;;20.52;15.68;;;18.30;99.90;;;;;;5091297;28;20408;-57
2023/06/17 07:40:31;;;;;;;17.63;12.90;;;20.10;99.90;;;;;;5073130;28;20043;-58
2023/06/17 07:42:57;;;;;;;19.13;13.05;;;19.50;99.90;;;;;;5093108;28;20140;-58
2023/06/17 07:45:23;;;;;;;16.67;13.25;;;19.60;99.90;;;;;;5089557;28;20066;-58
2023/06/17 07:47:49;;;;;;;19.73;13.65;;;19.60;99.90;;;;;;5092408;28;20134;-58
2023/06/17 07:50:15;;;;;;;16.50;11.73;;;19.40;99.90;;;;;;5091445;28;20067;-58
2023/06/17 07:52:40;;;;;;;16.95;13.13;;;19.30;99.90;;;;;;5090754;28;20039;-59
2023/06/17 07:55:08;;;;;;;20.73;12.98;;;19.10;99.90;;;;;;5090942;28;20051;-58
2023/06/17 07:57:35;;;;;;;17.45;12.57;;;19.20;99.90;;;;;;5091433;28;20052;-58
2023/06/17 08:00:01;;;;;;;15.32;10.55;;;19.50;99.90;;;;;;5092059;28;20058;-59
2023/06/17 08:02:27;;;;;;;19.73;11.88;;;20.30;99.90;;;;;;5090440;28;20052;-59
2023/06/17 08:04:52;;;;;;;16.25;12.52;;;21.30;99.90;;;;;;5073821;28;20129;-58
2023/06/17 08:07:20;;;;;;;15.73;10.43;;;22.10;99.90;;;;;;5073229;28;20359;-58
2023/06/17 08:09:45;;;;;;;15.90;11.82;;;23.10;99.90;;;;;;5091374;28;20032;-59
2023/06/17 08:12:11;;;;;;;14.70;10.45;;;23.90;99.90;;;;;;5091629;28;20051;-58
2023/06/17 08:14:37;;;;;;;13.43;10.18;;;24.50;99.90;;;;;;5091739;28;20043;-58
2023/06/17 08:17:03;;;;;;;13.50;9.07;;;24.90;99.90;;;;;;5091893;28;20048;-58
2023/06/17 08:19:28;;;;;;;13.82;9.93;;;25.30;99.90;;;;;;5091108;28;20074;-58
2023/06/17 08:21:54;;;;;;;14.38;10.75;;;25.60;99.90;;;;;;5089811;28;20046;-58
2023/06/17 08:24:25;;;;;;;14.00;8.63;;;26.00;99.90;;;;;;5089190;28;20079;-58
2023/06/17 08:26:52;;;;;;;14.25;10.18;;;26.20;99.90;;;;;;5089589;28;20051;-58
2023/06/17 08:29:18;;;;;;;11.00;7.78;;;26.20;99.90;;;;;;5089869;28;20126;-58
2023/06/17 08:31:47;;;;;;;14.02;9.00;;;26.40;99.90;;;;;;5090196;28;20055;-58
2023/06/17 08:34:14;;;;;;;12.88;8.73;;;27.00;99.90;;;;;;5091444;28;20085;-61
2023/06/17 08:36:46;;;;;;;14.68;9.18;;;26.80;99.90;;;;;;5090718;28;20035;-58
2023/06/17 08:39:12;;;;;;;17.08;9.73;;;26.50;99.90;;;;;;5072818;28;20044;-58
2023/06/17 08:41:42;;;;;;;12.98;8.70;;;26.50;99.90;;;;;;5088867;28;20036;-58
2023/06/17 08:44:13;;;;;;;16.75;9.80;;;26.60;99.90;;;;;;5089971;28;20081;-58
2023/06/17 08:46:44;;;;;;;12.57;8.30;;;26.70;99.90;;;;;;5089897;28;20046;-58
2023/06/17 08:49:12;;;;;;;13.32;7.65;;;26.60;99.90;;;;;;5088756;28;20797;-58
2023/06/17 08:51:39;;;;;;;15.00;7.25;;;27.00;99.90;;;;;;5088779;28;20070;-57
2023/06/17 08:54:05;;;;;;;12.25;6.50;;;27.00;99.90;;;;;;5072476;28;20056;-57
2023/06/17 08:56:31;;;;;;;13.50;8.35;;;26.70;99.90;;;;;;5089097;28;20494;-58
2023/06/17 08:58:57;;;;;;;10.48;6.53;;;26.70;99.90;;;;;;5089643;28;20035;-58
2023/06/17 09:01:24;;;;;;;10.25;6.72;;;27.10;99.90;;;;;;5089675;28;20039;-58
2023/06/17 09:03:54;;;;;;;13.30;7.35;;;26.80;99.90;;;;;;5091091;28;20039;-58
2023/06/17 09:06:28;;;;;;;10.13;7.80;;;26.70;99.90;;;;;;5089882;28;20149;-58
2023/06/17 09:08:55;;;;;;;14.23;7.90;;;27.00;99.90;;;;;;5089885;28;20048;-58
2023/06/17 09:11:22;;;;;;;12.25;8.00;;;26.60;99.90;;;;;;5090029;28;20031;-56
2023/06/17 09:13:56;;;;;;;12.10;8.77;;;26.60;99.90;;;;;;5088989;28;20040;-57
2023/06/17 09:16:30;;;;;;;15.98;8.23;;;26.70;99.90;;;;;;5089177;28;20047;-57
2023/06/17 09:18:58;;;;;;;10.77;7.70;;;26.20;99.90;;;;;;5089349;28;20115;-56
2023/06/17 09:21:25;;;;;;;13.60;8.50;;;26.10;99.90;;;;;;5089607;28;20040;-57
2023/06/17 09:23:55;;;;;;;13.63;8.60;;;25.80;99.90;;;;;;5089183;28;20043;-57
2023/06/17 09:26:25;;;;;;;15.13;9.23;;;25.50;99.90;;;;;;5091458;28;20040;-57
2023/06/17 09:28:51;;;;;;;11.65;8.55;;;25.40;99.90;;;;;;5089748;28;20051;-57
2023/06/17 09:31:18;;;;;;;14.20;8.75;;;25.30;99.90;;;;;;5090020;28;20047;-58
2023/06/17 09:33:45;;;;;;;16.73;9.15;;;25.20;99.90;;;;;;5090804;28;20047;-57
2023/06/17 09:36:11;;;;;;;13.57;8.60;;;25.10;99.90;;;;;;5072362;28;20043;-56
2023/06/17 09:38:38;;;;;;;12.93;8.93;;;25.10;99.90;;;;;;5091529;28;20147;-57
2023/06/17 09:41:05;;;;;;;13.45;8.65;;;24.90;99.90;;;;;;5091779;28;20042;-58
2023/06/17 09:43:30;;;;;;;13.15;9.27;;;25.10;99.90;;;;;;5090671;28;20081;-57
2023/06/17 09:46:01;;;;;;;16.55;9.43;;;25.10;99.90;;;;;;5091293;28;20081;-58
2023/06/17 09:48:35;;;;;;;14.98;9.10;;;25.10;99.90;;;;;;5091814;28;20341;-57
2023/06/17 09:51:05;;;;;;;12.30;8.52;;;25.10;99.90;;;;;;5089842;28;20035;-57
2023/06/17 09:53:31;;;;;;;12.30;8.20;;;25.20;99.90;;;;;;5089355;28;20055;-58
2023/06/17 09:55:58;;;;;;;14.07;8.02;;;25.40;99.90;;;;;;5087968;28;20036;-57
2023/06/17 09:58:31;;;;;;;12.90;7.80;;;25.30;99.90;;;;;;5089216;28;20059;-58
2023/06/17 10:01:00;;;;;;;14.70;9.15;;;27.40;99.90;;;;;;5068027;28;20048;-57
2023/06/17 10:03:26;;;;;;;12.27;7.80;;;25.30;99.90;;;;;;5090399;28;20039;-57
2023/06/17 10:06:00;;;;;;;12.05;8.20;;;25.20;99.90;;;;;;5088235;28;20342;-57
2023/06/17 10:08:28;;;;;;;13.63;8.18;;;25.30;99.90;;;;;;5087923;28;20051;-57
2023/06/17 10:10:56;;;;;;;17.85;9.52;;;25.40;99.90;;;;;;5065211;28;20040;-57
2023/06/17 10:13:24;;;;;;;14.48;8.15;;;25.30;99.90;;;;;;5089366;28;20082;-57
2023/06/17 10:15:50;;;;;;;14.10;8.25;;;25.20;99.90;;;;;;5088424;28;20087;-57
2023/06/17 10:18:18;;;;;;;12.45;6.95;;;25.00;99.90;;;;;;5071453;28;20036;-58
2023/06/17 10:20:46;;;;;;;13.75;7.53;;;25.20;99.90;;;;;;5086871;28;20544;-58
2023/06/17 10:23:12;;;;;;;10.88;6.43;;;25.30;99.90;;;;;;5089139;28;20177;-57
2023/06/17 10:25:40;;;;;;;15.93;8.25;;;25.50;99.90;;;;;;5089113;28;20109;-58
2023/06/17 10:28:06;;;;;;;11.65;7.30;;;25.40;99.90;;;;;;5090671;28;20484;-57
2023/06/17 10:30:32;;;;;;;13.60;7.68;;;25.70;99.90;;;;;;5087299;28;20038;-57
2023/06/17 10:33:03;;;;;;;11.40;7.35;;;26.00;99.90;;;;;;5087765;28;20036;-56
2023/06/17 10:35:43;;;;;;;13.05;6.95;;;26.20;99.90;;;;;;5088030;28;20044;-58
2023/06/17 10:38:10;;;;;;;12.32;7.03;;;26.20;99.90;;;;;;5089277;28;20407;-57
2023/06/17 10:40:46;;;;;;;11.60;6.55;;;26.30;99.90;;;;;;5089802;28;20039;-57
2023/06/17 10:43:13;;;;;;;12.60;6.75;;;26.30;99.90;;;;;;5089575;28;20050;-57
2023/06/17 10:45:49;;;;;;;10.77;6.43;;;26.30;99.90;;;;;;5089679;28;20048;-57
2023/06/17 10:48:20;;;;;;;11.43;6.35;;;26.60;99.90;;;;;;5092504;28;20046;-57
2023/06/17 10:51:10;;;;;;;11.23;6.60;;;26.70;99.90;;;;;;5094854;28;20144;-57
2023/06/17 10:53:36;;;;;;;14.25;6.57;;;26.60;99.90;;;;;;5093982;28;20048;-57
2023/06/17 10:56:04;;;;;;;12.20;6.30;;;26.50;99.90;;;;;;5094666;28;20629;-57
2023/06/17 10:58:31;;;;;;;11.95;6.82;;;26.90;99.90;;;;;;5092529;28;20040;-57
2023/06/17 11:01:08;;;;;;;14.80;6.97;;;26.60;99.90;;;;;;5094349;28;20078;-57
2023/06/17 11:03:34;;;;;;;10.80;6.28;;;26.90;99.90;;;;;;5093711;28;20039;-56
2023/06/17 11:06:05;;;;;;;10.00;6.32;;;27.00;99.90;;;;;;5093190;28;20056;-57
2023/06/17 11:08:32;;;;;;;;;;;27.20;99.90;;;;;;5076706;28;20052;-57
2023/06/17 11:11:16;;;;;;;12.13;6.45;;;26.90;99.90;;;;;;5094740;28;20776;-58
2023/06/17 11:13:52;;;;;;;13.52;6.05;;;27.10;99.90;;;;;;5094906;28;20055;-57
2023/06/17 11:16:18;;;;;;;14.55;5.90;;;27.20;99.90;;;;;;5094198;28;20119;-57
2023/06/17 11:18:47;;;;;;;10.00;6.05;;;27.30;99.90;;;;;;5095653;28;20092;-57
2023/06/17 11:21:15;;;;;;;12.38;6.57;;;27.30;99.90;;;;;;5094094;28;20131;-57
2023/06/17 11:23:43;;;;;;;9.00;6.32;;;27.30;99.90;;;;;;5093743;28;20040;-57
2023/06/17 11:26:09;;;;;;;12.23;6.28;;;27.30;99.90;;;;;;5092363;28;20132;-57
2023/06/17 11:28:35;;;;;;;9.95;6.20;;;27.20;99.90;;;;;;5092148;28;20567;-57
2023/06/17 11:31:02;;;;;;;19.77;9.88;;;27.40;99.90;;;;;;5075200;28;20088;-57
2023/06/17 11:33:28;;;;;;;12.77;6.18;;;27.20;99.90;;;;;;5092112;28;20093;-57
2023/06/17 11:35:54;;;;;;;14.00;6.50;;;27.30;99.90;;;;;;5067240;28;20031;-57
2023/06/17 11:38:24;;;;;;;15.63;6.60;;;27.00;99.90;;;;;;5092011;28;20300;-57
2023/06/17 11:40:55;;;;;;;9.60;6.85;;;27.40;99.90;;;;;;5093110;28;20051;-57
2023/06/17 11:43:26;;;;;;;11.60;5.88;;;27.40;99.90;;;;;;5093681;28;20047;-58
2023/06/17 11:45:56;;;;;;;9.73;5.75;;;27.50;99.90;;;;;;5092710;28;20567;-58
2023/06/17 11:48:29;;;;;;;9.40;6.38;;;27.30;99.90;;;;;;5093420;28;20166;-57
2023/06/17 11:50:58;;;;;;;10.88;6.13;;;27.60;99.90;;;;;;5093624;28;20031;-57
2023/06/17 11:53:37;;;;;;;10.52;6.20;;;27.70;99.90;;;;;;5091325;28;20047;-56
2023/06/17 11:56:08;;;;;;;9.30;6.03;;;27.70;99.90;;;;;;5092583;28;21303;-57
2023/06/17 11:58:40;;;;;;;11.40;6.30;;;27.50;99.90;;;;;;5091141;28;20776;-57
2023/06/17 12:01:08;;;;;;;10.18;5.63;;;27.60;99.90;;;;;;5092564;28;20055;-57
2023/06/17 12:03:34;;;;;;;12.85;6.75;;;27.70;99.90;;;;;;5091604;28;20077;-55
2023/06/17 12:06:00;;;;;;;8.85;6.10;;;28.00;99.90;;;;;;5092829;28;20576;-56
2023/06/17 12:08:33;;;;;;;8.85;5.93;;;27.70;99.90;;;;;;5092989;28;20047;-58
2023/06/17 12:11:07;;;;;;;12.85;6.45;;;27.60;99.90;;;;;;5092288;28;20054;-57
2023/06/17 12:13:42;;;;;;;9.23;5.75;;;27.60;99.90;;;;;;5093501;28;20043;-57
2023/06/17 12:16:22;;;;;;;9.15;6.00;;;27.80;99.90;;;;;;5092319;28;20126;-58
2023/06/17 12:18:50;;;;;;;10.25;6.95;;;27.70;99.90;;;;;;5092443;28;20049;-57
2023/06/17 12:21:18;;;;;;;14.70;7.68;;;27.50;99.90;;;;;;5090873;28;20502;-57
2023/06/17 12:23:44;;;;;;;9.43;6.60;;;27.70;99.90;;;;;;5091447;28;20536;-57
2023/06/17 12:26:10;;;;;;;10.60;6.82;;;27.20;99.90;;;;;;5092749;28;20043;-57
2023/06/17 12:28:37;;;;;;;10.13;6.50;;;27.30;99.90;;;;;;5072853;28;20042;-57
2023/06/17 12:31:02;;;;;;;13.32;8.18;;;27.30;99.90;;;;;;5092540;28;20056;-57